• Join FlightAware (Why Join?)
  • Login
  • US Flag 
05:51AM EDT


 

Airport Tracker/Info


-or-


 

Live Flight TrackerFlight Track Log ✈ IGO461 ✈ 25-Apr-2013 ✈ VABB / BOM - VOBL / BLR

Flight Track Log - Related Links

Times and Time Zones

All times are in EDT time to prevent confusion due to time zone crossing. See the IGO461 flight status page for this flight to view local times or setup timezone preferences in your user account.

Time Position Orientation Groundspeed Altitude Reporting Facility
EDT Latitude Longitude Course Direction KTS MPH feet Rate Location/Type
01:23AM 18.5380 72.9060 148° Southeast 396 456 18,700  Level FlightAware
01:23AM 18.4770 72.9460 148° Southeast 396 456 18,700 1,440 Level FlightAware
01:24AM 18.3860 73.0050 148° Southeast 403 464 21,100 1,500 Climbing FlightAware
01:25AM 18.3330 73.0400 148° Southeast 403 464 21,100 1,920 Level FlightAware
01:26AM 18.2470 73.0940 149° Southeast 420 483 23,900 2,640 Climbing FlightAware
01:26AM 18.1670 73.1460 148° Southeast 425 489 25,100 1,440 Climbing FlightAware
01:27AM 18.1040 73.1870 148° Southeast 428 493 26,000 840 Climbing FlightAware
01:28AM 18.0080 73.2490 148° Southeast 439 505 26,500 300 Climbing FlightAware
01:29AM 17.9490 73.2880 148° Southeast 439 505 26,500 1,440 Level FlightAware
01:29AM 17.8480 73.3520 149° Southeast 462 532 28,600 1,860 Climbing FlightAware
01:30AM 17.7650 73.4050 149° Southeast 471 542 29,300 1,080 Climbing FlightAware
01:31AM 17.6920 73.4520 148° Southeast 471 542 30,200 1,380 Climbing FlightAware
01:32AM 17.6170 73.5000 149° Southeast 469 540 31,200 1,320 Climbing FlightAware
01:32AM 17.5230 73.5610 148° Southeast 458 527 32,300 660 Climbing FlightAware
01:33AM 17.4620 73.6010 148° Southeast 458 527 32,300 1,680 Level FlightAware
01:34AM 17.3640 73.6620 149° Southeast 447 514 34,700 1,800 Climbing FlightAware
01:35AM 17.2850 73.7130 148° Southeast 447 514 35,000 180 Climbing FlightAware
01:35AM 17.2160 73.7570 149° Southeast 442 509 35,000  Level FlightAware
01:36AM 17.1510 73.7990 148° Southeast 442 509 35,000  Level FlightAware
01:37AM 17.0920 73.8380 148° Southeast 442 509 35,000  Level FlightAware
01:37AM 17.0330 73.8760 148° Southeast 442 509 35,000  Level FlightAware
01:38AM 16.9590 73.9240 148° Southeast 442 509 35,000  Level FlightAware
01:39AM 16.9000 73.9630 148° Southeast 442 509 35,000  Level FlightAware
01:39AM 16.7850 74.0310 150° Southeast 446 513 35,000  Level FlightAware
01:40AM 16.7120 74.0780 148° Southeast 446 513 35,000  Level FlightAware
01:41AM 16.6530 74.1170 148° Southeast 446 513 35,000  Level FlightAware
01:42AM 16.5780 74.1660 148° Southeast 446 513 35,000  Level FlightAware
01:42AM 16.5190 74.2040 148° Southeast 446 513 35,000  Level FlightAware
01:43AM 16.4590 74.2430 148° Southeast 446 513 35,000  Level FlightAware
01:44AM 16.4000 74.2820 148° Southeast 446 513 35,000  Level FlightAware
01:44AM 16.3400 74.3210 148° Southeast 446 513 35,000  Level FlightAware
01:45AM 16.2660 74.3690 148° Southeast 446 513 35,000  Level FlightAware
01:46AM 16.2060 74.4080 148° Southeast 446 513 35,000  Level FlightAware
01:46AM 16.1470 74.4470 148° Southeast 446 513 35,000  Level FlightAware
01:47AM 16.0870 74.4850 149° Southeast 446 513 35,000  Level FlightAware
01:48AM 16.0280 74.5240 148° Southeast 446 513 35,000  Level FlightAware
01:49AM 15.9540 74.5720 148° Southeast 446 513 35,000  Level FlightAware
01:49AM 15.8940 74.6110 148° Southeast 446 513 35,000  Level FlightAware
01:52AM 15.7542 74.7746 132° Southeast  Level Estimated
01:53AM 15.6911 74.8484 132° Southeast  Level Estimated
01:54AM 15.6280 74.9221 132° Southeast  Level Estimated
01:55AM 15.5648 74.9958 132° Southeast  Level Estimated
01:56AM 15.5016 75.0694 132° Southeast  Level Estimated
01:57AM 15.4384 75.1429 132° Southeast  Level Estimated
01:58AM 15.3752 75.2165 132° Southeast  Level Estimated
01:59AM 15.3120 75.2899 132° Southeast  Level Estimated
02:00AM 15.2487 75.3634 132° Southeast  Level Estimated
02:01AM 15.1854 75.4368 132° Southeast  Level Estimated
02:02AM 15.1221 75.5101 132° Southeast  Level Estimated
02:03AM 15.0587 75.5834 132° Southeast  Level Estimated
02:04AM 14.9953 75.6566 132° Southeast  Level Estimated
02:05AM 14.9319 75.7299 132° Southeast  Level Estimated
02:06AM 14.8685 75.8030 132° Southeast  Level Estimated
02:07AM 14.8051 75.8762 132° Southeast  Level Estimated
02:08AM 14.7416 75.9492 132° Southeast  Level Estimated
02:09AM 14.6781 76.0223 132° Southeast  Level Estimated
02:10AM 14.6146 76.0953 132° Southeast  Level Estimated
02:11AM 14.5511 76.1682 132° Southeast  Level Estimated
02:12AM 14.4875 76.2411 132° Southeast  Level Estimated
02:13AM 14.4240 76.3140 132° Southeast  Level Estimated
02:14AM 14.3604 76.3868 132° Southeast  Level Estimated
02:15AM 14.2968 76.4596 132° Southeast  Level Estimated
02:16AM 14.2331 76.5324 132° Southeast  Level Estimated
02:17AM 14.1694 76.6051 132° Southeast  Level Estimated
02:18AM 14.1058 76.6778 132° Southeast  Level Estimated
02:19AM 14.0420 76.7504 132° Southeast  Level Estimated
02:20AM 13.9783 76.8230 132° Southeast  Level Estimated
02:21AM 13.9146 76.8955 132° Southeast  Level Estimated
02:22AM 13.8508 76.9680 132° Southeast  Level Estimated
02:23AM 13.7870 77.0405 132° Southeast  Level Estimated
02:24AM 13.7232 77.1129 132° Southeast  Level Estimated
02:25AM 13.6593 77.1853 132° Southeast  Level Estimated
02:26AM 13.5955 77.2577 132° Southeast  Level Estimated
02:27AM 13.5316 77.3300 132° Southeast  Level Estimated
02:28AM 13.4677 77.4022 132° Southeast  Level Estimated
02:29AM 13.4038 77.4745 132° Southeast  Level Estimated
02:30AM 13.3398 77.5467 132° Southeast  Level Estimated
02:31AM 13.2759 77.6188 132° Southeast  Level Estimated
02:32AM 13.2119 77.6909 132° Southeast  Level Estimated
02:33AM 13.1989 77.7056 132° Southeast  Level Estimated
02:34AM 13.1989 77.7056 256° West  Level Estimated
02:35AM 13.1989 77.7056 256° West  Level Estimated
02:36AM 13.1989 77.7056 256° West  Level Estimated